• Join FlightAware (Why Join?)
  • Login
  • US Flag 
10:47PM EDT


 

Airport Tracker/Info


-or-


 

Live Flight TrackerFlight Track Log ✈ EJA903 ✈ 18-Jun-2013 ✈ KPDX - KORH

Flight Track Log - Related Links

Times and Time Zones

All times are in EDT time to prevent confusion due to time zone crossing. See the EJA903 flight status page for this flight to view local times or setup timezone preferences in your user account.

Time Position Orientation Groundspeed Altitude Reporting Facility
EDT Latitude Longitude Course Direction KTS MPH feet Rate Location/Type
07:57PM 45.5978 -122.6056 291° West 171 197 800  Level Seattle Center
07:58PM 45.6072 -122.6408 291° West 237 273 1,900 3,060 Climbing Seattle Center
07:59PM 45.6500 -122.6994 316° Northwest 257 296 5,600 3,720 Climbing Seattle Center
08:00PM 45.6936 -122.6225 51° Northeast 261 300 9,500 3,000 Climbing Seattle Center
08:01PM 45.7042 -122.4944 83° East 331 381 11,700 2,160 Climbing Seattle Center
08:02PM 45.7117 -122.3506 86° East 361 415 13,900 2,040 Climbing Seattle Center
08:03PM 45.7519 -122.2097 68° East 382 440 15,900 1,860 Climbing Seattle Center
08:04PM 45.7942 -122.0661 67° East 389 448 17,700 1,620 Climbing Seattle Center
08:05PM 45.8367 -121.9203 67° East 403 464 19,300 1,860 Climbing Seattle Center
08:06PM 45.8917 -121.7342 67° East 421 484 21,500 2,040 Climbing Seattle Center
08:07PM 45.9383 -121.5753 67° East 429 494 23,500 1,800 Climbing Seattle Center
08:08PM 45.9847 -121.4103 68° East 442 509 25,200 1,620 Climbing Seattle Center
08:09PM 46.0336 -121.2431 67° East 453 521 26,800 1,500 Climbing Seattle Center
08:10PM 46.0842 -121.0667 67° East 472 543 28,300 1,620 Climbing Seattle Center
08:11PM 46.1333 -120.8878 68° East 477 549 30,100 1,740 Climbing Seattle Center
08:12PM 46.1672 -120.7103 75° East 461 531 31,900 1,680 Climbing Seattle Center
08:13PM 46.1944 -120.5267 78° East 461 531 33,600 1,380 Climbing Seattle Center
08:14PM 46.2208 -120.3442 78° East 464 534 34,800 1,320 Climbing Seattle Center
08:15PM 46.2447 -120.1606 79° East 465 535 36,400 1,260 Climbing Seattle Center
08:16PM 46.2689 -119.9756 79° East 468 539 37,400 780 Climbing Seattle Center
08:17PM 46.2911 -119.7869 80° East 476 548 38,000 540 Climbing Seattle Center
08:18PM 46.3139 -119.5933 80° East 484 557 38,600 540 Climbing Seattle Center
08:19PM 46.3361 -119.4011 80° East 484 557 39,200 540 Climbing Seattle Center
08:20PM 46.3597 -119.2133 80° East 477 549 39,800 600 Climbing Seattle Center
08:21PM 46.3853 -118.9872 81° East 474 545 40,500 540 Climbing Seattle Center
08:22PM 46.4094 -118.7961 80° East 479 551 41,000 240 Climbing Seattle Center
08:23PM 46.4300 -118.6072 81° East 477 549 41,000  Level Seattle Center
08:24PM 46.4517 -118.4147 81° East 484 557 41,000  Level Seattle Center
08:25PM 46.4731 -118.2172 81° East 493 567 41,000  Level Seattle Center
08:26PM 46.4947 -118.0186 81° East 498 573 41,000  Level Seattle Center
08:27PM 46.5147 -117.8200 82° East 502 578 41,000  Level Seattle Center
08:28PM 46.5358 -117.6161 81° East 511 588 41,000  Level Seattle Center
08:29PM 46.5564 -117.4122 82° East 514 592 41,000  Level Seattle Center
08:30PM 46.5761 -117.2072 82° East 516 594 41,000  Level Seattle Center
08:31PM 46.5961 -117.0031 82° East 517 595 41,000  Level Seattle Center
08:32PM 46.6200 -116.7494 82° East 529 609 41,000  Level Seattle Center
08:33PM 46.6392 -116.5456 82° East 518 596 41,000  Level Seattle Center
08:34PM 46.6581 -116.3411 82° East 515 593 41,000  Level Seattle Center
08:35PM 46.6758 -116.1353 83° East 515 593 41,000  Level Seattle Center
08:36PM 46.6939 -115.9297 83° East 515 593 41,000  Level Seattle Center
08:37PM 46.7122 -115.7214 83° East 519 597 41,000  Level Seattle Center
08:38PM 46.7303 -115.5125 83° East 521 600 41,000  Level Seattle Center
08:39PM 46.7464 -115.3114 83° East 525 604 41,000 -60 Level Seattle Center
08:40PM 46.7633 -115.1008 83° East 526 605 40,900  Descending Salt Lake Center
08:41PM 46.7808 -114.8928 83° East 522 601 41,000  Climbing Salt Lake Center
08:42PM 46.7947 -114.6869 84° East 515 593 41,000  Level Salt Lake Center
08:43PM 46.8142 -114.4392 83° East 517 595 41,000  Level Salt Lake Center
08:45PM 46.8289 -114.2317 84° East 519 597 41,000  Level Salt Lake Center
08:46PM 46.8442 -114.0211 84° East 523 602 41,000  Level Salt Lake Center
08:47PM 46.8583 -113.8106 84° East 525 604 41,000  Level Salt Lake Center
08:48PM 46.8731 -113.6006 84° East 524 603 41,000  Level Salt Lake Center
08:49PM 46.8864 -113.3906 85° East 523 602 41,000  Level Salt Lake Center
08:50PM 46.9028 -113.1378 84° East 524 603 41,000  Level Salt Lake Center
08:51PM 46.9147 -112.9275 85° East 522 601 41,000  Level Salt Lake Center
08:52PM 46.9275 -112.7333 84° East 524 603 41,000  Level Salt Lake Center
08:53PM 46.9400 -112.5217 85° East 525 604 41,000  Level Salt Lake Center
08:54PM 46.9536 -112.2678 85° East 525 604 41,000  Level Salt Lake Center
08:55PM 46.9653 -112.0567 85° East 524 603 41,000  Level Salt Lake Center
08:56PM 46.9758 -111.8456 86° East 525 604 41,000  Level Salt Lake Center
08:57PM 46.9858 -111.6333 86° East 526 605 41,000  Level Salt Lake Center
08:58PM 46.9961 -111.4219 86° East 526 605 41,000  Level Salt Lake Center
08:59PM 47.0078 -111.1714 86° East 521 600 41,000  Level Salt Lake Center
09:00PM 47.0169 -110.9606 86° East 521 600 41,000  Level Salt Lake Center
09:01PM 47.0253 -110.7464 87° East 530 610 41,000 -60 Level Salt Lake Center
09:02PM 47.0344 -110.5292 86° East 536 617 40,900  Descending Salt Lake Center
09:03PM 47.0428 -110.3125 87° East 536 617 41,000  Climbing Salt Lake Center
09:04PM 47.0500 -110.0947 87° East 538 619 40,900  Descending Salt Lake Center
09:05PM 47.0586 -109.8336 87° East 538 619 41,000  Climbing Salt Lake Center
09:06PM 47.0658 -109.6147 87° East 541 623 41,000  Level Salt Lake Center
09:07PM 47.0719 -109.3975 88° East 538 619 41,000  Level Salt Lake Center
09:08PM 47.0775 -109.1789 88° East 539 620 41,000  Level Salt Lake Center
09:09PM 47.0842 -108.9378 88° East 536 617 41,000  Level Salt Lake Center
09:10PM 47.0875 -108.7208 89° East 535 616 41,000  Level Salt Lake Center
09:11PM 47.0928 -108.5044 88° East 533 613 41,000  Level Salt Lake Center
09:12PM 47.0972 -108.2875 88° East 534 615 41,000  Level Salt Lake Center
09:13PM 47.1056 -108.0522 87° East 533 613 41,000  Level Salt Lake Center
09:14PM 47.1097 -107.8350 88° East 535 616 41,000  Level Salt Lake Center
09:15PM 47.1106 -107.6381 90° East 532 612 41,000  Level Salt Lake Center
09:16PM 47.1147 -107.3792 89° East 531 611 41,000  Level Salt Lake Center
09:17PM 47.1156 -107.1606 90° East 535 616 41,000  Level Salt Lake Center
09:18PM 47.1192 -106.9436 89° East 535 616 41,000  Level Salt Lake Center
09:19PM 47.1194 -106.7236 90° East 539 620 41,000  Level Salt Lake Center
09:20PM 47.1206 -106.5039 89° East 540 621 41,000  Level Salt Lake Center
09:22PM 47.1208 -106.2836 90° East 542 624 41,000  Level Salt Lake Center
09:23PM 47.1197 -106.0619 90° East 543 625 41,000  Level Salt Lake Center
09:24PM 47.1192 -105.8403 90° East 545 627 41,000  Level Salt Lake Center
09:25PM 47.1194 -105.5744 90° East 545 627 41,000  Level Salt Lake Center
09:26PM 47.1172 -105.3533 91° East 545 627 41,000  Level Salt Lake Center
09:27PM 47.1172 -105.1333 90° East 545 627 41,000  Level Salt Lake Center
09:28PM 47.1153 -104.9106 91° East 545 627 41,000  Level Salt Lake Center
09:29PM 47.1128 -104.6875 91° East 547 629 41,000  Level Salt Lake Center
09:30PM 47.1111 -104.4650 91° East 548 631 41,000  Level Salt Lake Center
09:31PM 47.1064 -104.2419 92° East 550 633 41,000  Level Salt Lake Center
09:32PM 47.1028 -103.9794 91° East 547 629 41,000  Level Salt Lake Center
09:33PM 47.0997 -103.7592 91° East 546 628 41,000  Level Salt Lake Center
09:34PM 47.0950 -103.5414 92° East 543 625 41,000  Level Salt Lake Center
09:34PM 47.0939 -103.4083 91° East 543 625 41,000  Level Minneapolis Center
09:35PM 47.0886 -103.1858 92° East 549 632 41,000  Level Minneapolis Center
09:37PM 47.0836 -102.9611 92° East 553 636 41,000  Level Minneapolis Center
09:38PM 47.0767 -102.6922 92° East 553 636 41,000  Level Minneapolis Center
09:39PM 47.0697 -102.4694 93° East 551 634 41,000  Level Minneapolis Center
09:40PM 47.0625 -102.2478 93° East 548 631 41,000  Level Minneapolis Center
09:41PM 47.0550 -102.0244 93° East 549 632 41,000  Level Minneapolis Center
09:42PM 47.0453 -101.8031 94° East 548 631 41,000  Level Minneapolis Center
09:43PM 47.0383 -101.5811 93° East 548 631 41,000  Level Minneapolis Center
09:44PM 47.0317 -101.3558 92° East 550 633 41,000  Level Minneapolis Center
09:45PM 47.0167 -101.0872 95° East 552 635 41,000  Level Minneapolis Center
09:46PM 47.0072 -100.8636 93° East 550 633 41,000  Level Minneapolis Center
09:47PM 46.9961 -100.6414 94° East 549 632 41,000  Level Minneapolis Center
09:48PM 46.9867 -100.4308 94° East 546 628 41,000  Level Minneapolis Center
09:49PM 46.9736 -100.1667 94° East 546 628 41,000  Level Minneapolis Center
09:50PM 46.9606 -99.9447 95° East 549 632 41,000  Level Minneapolis Center
09:51PM 46.9489 -99.7236 94° East 548 631 41,000  Level Minneapolis Center
09:52PM 46.9356 -99.5036 95° East 546 628 41,000  Level Minneapolis Center
09:53PM 46.9242 -99.2839 94° East 545 627 41,000  Level Minneapolis Center
09:54PM 46.9106 -99.0642 95° East 546 628 41,000  Level Minneapolis Center
09:55PM 46.8933 -98.8008 95° East 547 629 41,000  Level Minneapolis Center
09:56PM 46.8767 -98.5364 95° East 548 631 41,000  Level Minneapolis Center
09:57PM 46.8625 -98.3183 95° East 546 628 41,000  Level Minneapolis Center
09:58PM 46.8472 -98.0978 96° East 549 632 41,000  Level Minneapolis Center
09:59PM 46.8308 -97.8764 96° East 553 636 41,000  Level Minneapolis Center
10:00PM 46.8114 -97.6106 96° East 554 638 41,000  Level Minneapolis Center
10:01PM 46.7950 -97.3878 96° East 557 641 41,000  Level Minneapolis Center
10:02PM 46.7783 -97.1642 96° East 558 642 41,000  Level Minneapolis Center
10:04PM 46.7608 -96.9414 96° East 558 642 41,000  Level Minneapolis Center
10:05PM 46.7367 -96.7181 99° East 560 644 41,000  Level Minneapolis Center
10:06PM 46.7061 -96.4967 101° East 561 646 41,000  Level Minneapolis Center
10:07PM 46.6764 -96.2756 101° East 560 644 41,000  Level Minneapolis Center
10:08PM 46.6406 -96.0125 101° East 556 640 41,000  Level Minneapolis Center
10:09PM 46.6103 -95.7931 101° East 555 639 41,000  Level Minneapolis Center
10:10PM 46.5789 -95.5736 102° East 557 641 41,000  Level Minneapolis Center
10:11PM 46.5450 -95.3306 101° East 560 644 41,000  Level Minneapolis Center
10:12PM 46.5144 -95.1119 101° East 556 640 41,000  Level Minneapolis Center
10:13PM 46.4808 -94.8936 103° East 555 639 41,000  Level Minneapolis Center
10:14PM 46.4481 -94.6783 102° East 551 634 41,000  Level Minneapolis Center
10:15PM 46.4156 -94.4608 102° East 554 638 41,000  Level Minneapolis Center
10:16PM 46.3806 -94.2419 103° East 560 644 41,000  Level Minneapolis Center
10:17PM 46.3458 -94.0261 103° East 558 642 41,000  Level Minneapolis Center
10:18PM 46.2792 -93.7778 111° Southeast 557 641 41,000  Level Minneapolis Center
10:19PM 46.2214 -93.5722 112° Southeast 556 640 41,000  Level Minneapolis Center
10:20PM 46.1653 -93.3658 111° Southeast 554 638 41,000  Level Minneapolis Center
10:21PM 46.1067 -93.1589 112° Southeast 555 639 41,000  Level Minneapolis Center
10:22PM 46.0481 -92.9528 112° Southeast 556 640 41,000  Level Minneapolis Center
10:23PM 45.9897 -92.7472 112° Southeast 556 640 41,000  Level Minneapolis Center
10:24PM 45.9194 -92.5067 113° Southeast 548 631 41,000  Level Minneapolis Center
10:25PM 45.8467 -92.2597 113° Southeast 558 642 41,000  Level Minneapolis Center
10:26PM 45.7858 -92.0547 113° Southeast 558 642 41,000  Level Minneapolis Center
10:27PM 45.7269 -91.8522 113° Southeast 554 638 41,000  Level Minneapolis Center
10:28PM 45.6664 -91.6508 113° Southeast 552 635 41,000  Level Minneapolis Center
10:29PM 45.6067 -91.4497 113° Southeast 552 635 41,000  Level Minneapolis Center
10:30PM 45.5447 -91.2475 114° Southeast 554 638 41,000  Level Minneapolis Center
10:31PM 45.4839 -91.0508 114° Southeast 557 641 41,000  Level Minneapolis Center
10:32PM 45.4092 -90.8094 114° Southeast 557 641 41,000  Level Minneapolis Center
10:33PM 45.3461 -90.6086 114° Southeast 559 643 41,000  Level Minneapolis Center
10:35PM 45.2839 -90.4100 114° Southeast 556 640 41,000  Level Minneapolis Center
10:36PM 45.2211 -90.2119 114° Southeast 554 638 41,000  Level Minneapolis Center
10:37PM 45.1592 -90.0147 114° Southeast 552 635 41,000  Level Minneapolis Center
10:38PM 45.0944 -89.8183 115° Southeast 553 636 41,000  Level Minneapolis Center
10:39PM 45.0197 -89.5867 114° Southeast 555 639 41,000  Level Minneapolis Center
10:40PM 44.9558 -89.3872 114° Southeast 556 640 41,000  Level Minneapolis Center
10:41PM 44.8794 -89.1592 115° Southeast 552 635 41,000  Level Minneapolis Center
10:42PM 44.8156 -88.9625 115° Southeast 551 634 41,000  Level Minneapolis Center
10:43PM 44.7494 -88.7692 116° Southeast 549 632 41,000  Level Minneapolis Center
10:44PM 44.6844 -88.5719 115° Southeast 553 636 41,000  Level Minneapolis Center
10:45PM 44.6178 -88.3783 116° Southeast 552 635 41,000  Level Minneapolis Center
10:46PM 44.5453 -88.1475 114° Southeast 554 638 41,000  Level Minneapolis Center
10:47PM 44.4978 -87.9244 107° East 554 638 41,000  Level Minneapolis Center
10:48PM 44.4481 -87.6953 107° East 561 646 41,000  Level Minneapolis Center
10:49PM 44.4039 -87.4881 107° East 557 641 41,000  Level Minneapolis Center
10:50PM 44.3589 -87.2811 107° East 555 639 41,000  Level Minneapolis Center
10:51PM 44.3106 -87.0606 107° East 553 636 41,000  Level Minneapolis Center
10:52PM 44.2656 -86.8586 107° East 550 633 41,000  Level Minneapolis Center
10:53PM 44.2208 -86.6569 107° East 549 632 41,000  Level Minneapolis Center
10:55PM 44.1758 -86.4550 107° East 550 633 41,000  Level Minneapolis Center
10:56PM 44.1206 -86.2133 108° East 552 635 41,000  Level Minneapolis Center
10:57PM 44.0700 -85.9936 108° East 552 635 41,000  Level Minneapolis Center
10:58PM 44.0236 -85.7894 107° East 553 636 41,000  Level Minneapolis Center
10:59PM 43.9756 -85.5847 108° East 555 639 41,000  Level Minneapolis Center
11:00PM 43.9275 -85.3803 108° East 556 640 41,000  Level Minneapolis Center
11:01PM 43.8792 -85.1769 108° East 556 640 41,000  Level Minneapolis Center
11:02PM 43.8300 -84.9714 108° East 559 643 41,000  Level Minneapolis Center
11:03PM 43.7714 -84.7281 108° East 557 641 41,000  Level Minneapolis Center
11:04PM 43.7208 -84.5247 109° East 558 642 41,000  Level Minneapolis Center
11:05PM 43.6711 -84.3233 109° East 556 640 41,000  Level Minneapolis Center
11:06PM 43.6222 -84.1211 108° East 557 641 41,000  Level Minneapolis Center
11:07PM 43.5711 -83.9211 109° East 555 639 41,000  Level Minneapolis Center
11:08PM 43.5192 -83.7192 109° East 558 642 41,000  Level Minneapolis Center
11:09PM 43.4675 -83.5203 110° East 555 639 41,000  Level Minneapolis Center
11:10PM 43.4169 -83.3225 109° East 551 634 41,000  Level Minneapolis Center
11:10PM 43.3828 -83.2053 112° Southeast 550 633 41,000  Level Cleveland Center
11:11PM 43.3331 -83.0092 109° East 550 633 41,000  Level Cleveland Center
11:12PM 43.2786 -82.8103 111° Southeast 550 633 41,000  Level Cleveland Center
11:13PM 43.2386 -82.6064 105° East 550 633 41,000  Level Cleveland Center
11:14PM 43.2108 -82.3975 100° East 550 633 41,000  Level Cleveland Center
11:16PM 43.1500 -82.0833 105° East 560 644 41,000  Level Toronto Center
11:17PM 43.1333 -81.8667 96° East 560 644 41,000  Level Toronto Center
11:18PM 43.1000 -81.6667 103° East 560 644 41,000  Level Toronto Center
11:19PM 43.0667 -81.4667 103° East 560 644 41,000  Level Toronto Center
11:20PM 43.0333 -81.2500 102° East 560 644 41,000  Level Toronto Center
11:21PM 43.0167 -81.0167 96° East 570 656 41,000  Level Toronto Center
11:22PM 43.0000 -80.8167 96° East 570 656 41,000  Level Toronto Center
11:23PM 43.0167 -80.5833 84° East 570 656 41,000  Level Toronto Center
11:24PM 43.0000 -80.3833 96° East 570 656 41,000  Level Toronto Center
11:25PM 43.0000 -80.1833 90° East 570 656 41,000  Level Toronto Center
11:26PM 42.9833 -79.9500 95° East 570 656 41,000  Level Toronto Center
11:27PM 42.9667 -79.7500 96° East 570 656 41,000  Level Toronto Center
11:28PM 42.9667 -79.5167 90° East 580 667 41,000  Level Toronto Center
11:29PM 42.9500 -79.2833 95° East 580 667 41,000  Level Toronto Center
11:30PM 42.9500 -79.0833 90° East 580 667 41,000  Level Toronto Center
11:31PM 42.9333 -78.8667 96° East 580 667 41,000  Level Toronto Center
11:31PM 42.9358 -78.7683 88° East 571 657 41,000  Level Cleveland Center
11:32PM 42.9278 -78.5472 93° East 571 657 41,000  Level Cleveland Center
11:33PM 42.9239 -78.3292 91° East 571 657 41,000  Level Cleveland Center
11:34PM 42.9172 -78.1083 92° East 571 657 41,000  Level Cleveland Center
11:35PM 42.9125 -77.8900 92° East 571 657 41,000  Level Cleveland Center
11:36PM 42.9092 -77.6747 91° East 571 657 41,000  Level Cleveland Center
11:37PM 42.9036 -77.4567 92° East 571 657 41,000  Level Cleveland Center
11:39PM 42.8897 -77.0175 92° East 579 666 41,000  Level Boston Center
11:40PM 42.8836 -76.8017 92° East 574 661 41,000  Level Boston Center
11:41PM 42.8764 -76.6083 93° East 574 661 41,000  Level Boston Center
11:42PM 42.8697 -76.3897 92° East 574 661 41,000 -300 Level Boston Center
11:43PM 42.8622 -76.1739 93° East 574 661 40,400 -1,200 Descending Boston Center
11:44PM 42.8525 -75.9608 93° East 574 661 38,600 -1,920 Descending Boston Center
11:45PM 42.8442 -75.7478 93° East 569 655 36,600 -2,100 Descending Boston Center
11:46PM 42.8147 -75.5397 101° East 564 649 34,400 -2,100 Descending Boston Center
11:47PM 42.7661 -75.3278 107° East 569 655 32,500 -1,980 Descending Boston Center
11:48PM 42.7169 -75.1192 108° East 581 669 30,500 -2,220 Descending Boston Center
11:49PM 42.6636 -74.8908 108° East 581 669 28,100 -2,220 Descending Boston Center
11:50PM 42.6136 -74.6942 109° East 581 669 26,100 -2,040 Descending Boston Center
11:51PM 42.5692 -74.5067 108° East 548 631 24,100 -1,860 Descending Boston Center
11:52PM 42.5303 -74.3447 108° East 523 602 22,400 -1,800 Descending Boston Center
11:53PM 42.4894 -74.1689 107° East 497 572 20,500 -1,740 Descending Boston Center
11:54PM 42.4439 -73.9989 110° East 489 563 19,000 -1,560 Descending Boston Center
11:55PM 42.3983 -73.8119 108° East 484 557 17,400 -1,680 Descending Boston Center
11:56PM 42.3667 -73.6708 107° East 471 542 16,000 -1,620 Descending Boston Center
11:57PM 42.3344 -73.5608 112° Southeast 457 526 14,900 -1,560 Descending Boston Center
11:58PM 42.2964 -73.4056 108° East 441 507 13,400 -1,500 Descending Boston Center
11:59PM 42.2597 -73.2675 110° East 428 493 12,100 -1,440 Descending Boston Center
11:59PM 42.2519 -73.1975 99° East 426 490 11,400 -1,440 Descending Boston Center
12:00AM 42.2508 -73.0319 90° East 413 475 10,000 -960 Descending Boston Center
12:01AM 42.2511 -72.9644 90° East 401 461 10,000  Level Boston Center
12:01AM 42.2556 -72.9000 85° East 396 456 10,000  Level Boston Center
12:02AM 42.2558 -72.8189 90° East 393 452 10,000  Level Boston Center
12:02AM 42.2603 -72.7347 86° East 396 456 10,000  Level Boston Center
12:03AM 42.2625 -72.6700 87° East 335 386 10,000 -900 Level Boston Center
12:04AM 42.2628 -72.5608 90° East 292 336 8,700 -1,440 Descending Boston Center
12:05AM 42.2669 -72.4542 87° East 282 325 7,200 -1,440 Descending Boston Center
12:06AM 42.2733 -72.3531 85° East 265 305 5,800 -1,380 Descending Boston Center
12:07AM 42.2731 -72.2606 90° East 249 287 4,500 -1,200 Descending Boston Center
12:08AM 42.2792 -72.1764 84° East 225 259 3,500 -720 Descending Boston Center
12:09AM 42.2750 -72.1119 95° East 172 198 3,100 -300 Descending Boston Center
12:10AM 42.2725 -72.0472 93° East 158 182 3,000 -360 Descending Boston Center
12:11AM 42.2703 -71.9939 93° East 139 160 2,400 -660 Descending Boston Center
12:12AM 42.2681 -71.9547 94° East 145 167 1,800 -660 Descending Boston Center
12:13AM 42.2678 -71.9042 90° East 137 158 1,200 -300 Descending Boston Center
12:14AM 42.2656 -71.8875 100° East 137 158 1,200  Level Boston Center